Time;durP1;ratioP1;P1;durP2;ratioP2;P2;SDS_P1;SDS_P2;PMS_P1;PMS_P2;Temp;Humidity;BMP_temperature;BMP_pressure;BME280_temperature;BME280_humidity;BME280_pressure;Samples;Min_cycle;Max_cycle;Signal;HPM_P1;HPM_P2
2022/09/24 00:01:30;;;;;;;9.90;7.53;;;;;;;6.10;100.00;96148.84;6104595;23;20486;-76
2022/09/24 00:04:04;;;;;;;8.87;8.00;;;;;;;6.04;100.00;96142.97;6128552;23;20395;-76
2022/09/24 00:06:35;;;;;;;12.83;9.90;;;;;;;5.91;100.00;96151.69;6128323;23;20420;-77
2022/09/24 00:09:03;;;;;;;9.67;8.67;;;;;;;5.50;100.00;96115.94;6128950;23;20375;-76
2022/09/24 00:11:30;;;;;;;16.07;6.67;;;;;;;5.69;100.00;96123.59;6154649;23;20416;-78
2022/09/24 00:13:57;;;;;;;6.40;5.20;;;;;;;5.84;100.00;96157.31;6128556;23;20455;-77
2022/09/24 00:16:27;;;;;;;5.37;4.87;;;;;;;5.69;100.00;96146.44;6154484;23;20392;-77
2022/09/24 00:18:54;;;;;;;5.33;4.83;;;;;;;5.68;100.00;96139.63;6128398;23;20411;-77
2022/09/24 00:21:23;;;;;;;5.23;4.57;;;;;;;5.63;100.00;96146.56;6128750;23;20384;-77
2022/09/24 00:23:54;;;;;;;5.50;4.23;;;;;;;5.57;100.00;96121.50;6128548;23;20404;-77
2022/09/24 00:29:09;;;;;;;4.47;4.07;;;;;;;5.48;100.00;96119.94;6128410;23;20751;-77
2022/09/24 00:31:36;;;;;;;10.87;4.80;;;;;;;5.60;100.00;96133.25;6128655;23;20755;-77
2022/09/24 00:34:03;;;;;;;8.10;4.60;;;;;;;5.43;100.00;96107.69;6128507;23;20411;-76
2022/09/24 00:36:30;;;;;;;6.23;4.93;;;;;;;5.35;100.00;96082.22;6154448;23;20458;-77
2022/09/24 00:38:59;;;;;;;11.53;4.90;;;;;;;5.40;100.00;96095.19;6103930;23;20396;-76
2022/09/24 00:41:29;;;;;;;4.97;4.30;;;;;;;5.28;100.00;96077.38;6104038;23;20487;-77
2022/09/24 00:43:56;;;;;;;4.60;4.20;;;;;;;5.46;100.00;96101.06;6128128;23;20407;-77
2022/09/24 00:46:38;;;;;;;6.37;5.20;;;;;;;5.72;100.00;96132.72;6128113;23;20400;-77
2022/09/24 00:49:11;;;;;;;7.50;4.50;;;;;;;5.61;100.00;96125.09;6128596;23;20392;-77
2022/09/24 00:51:40;;;;;;;5.07;4.37;;;;;;;5.26;100.00;96092.63;6128354;23;20419;-77
2022/09/24 00:54:15;;;;;;;5.13;4.60;;;;;;;5.38;100.00;96107.03;6128078;23;20411;-77
2022/09/24 00:56:46;;;;;;;4.20;3.90;;;;;;;4.91;100.00;96061.97;6130067;23;20506;-77
2022/09/24 00:59:17;;;;;;;6.67;5.10;;;;;;;5.09;100.00;96110.84;6143211;23;20394;-77
2022/09/24 01:01:46;;;;;;;4.73;4.33;;;;;;;5.21;100.00;96092.75;6141775;23;20463;-76
2022/09/24 01:04:15;;;;;;;5.10;4.63;;;;;;;5.49;100.00;96113.59;6172151;23;20451;-76
2022/09/24 01:06:42;;;;;;;6.97;4.17;;;;;;;5.48;100.00;96096.31;6171109;23;20427;-76
2022/09/24 01:09:09;;;;;;;9.37;4.47;;;;;;;5.37;100.00;96093.16;6136259;23;20403;-77
2022/09/24 01:11:44;;;;;;;6.03;3.87;;;;;;;5.49;100.00;96109.13;6115145;23;20420;-78
2022/09/24 01:14:41;;;;;;;4.10;3.80;;;;;;;5.29;100.00;96081.53;6159386;23;20368;-78
2022/09/24 01:17:31;;;;;;;5.30;4.43;;;;;;;5.45;100.00;96091.66;6103374;23;20432;-76
2022/09/24 01:20:28;;;;;;;4.33;3.90;;;;;;;5.32;100.00;96109.00;6127978;23;20510;-77
2022/09/24 01:22:58;;;;;;;4.60;4.13;;;;;;;5.46;100.00;96106.31;6103460;23;20396;-79
2022/09/24 01:26:06;;;;;;;6.90;4.23;;;;;;;5.33;100.00;96081.72;6127744;23;20416;-77
2022/09/24 01:28:42;;;;;;;5.73;4.57;;;;;;;5.57;100.00;96100.53;6039828;23;20434;-78
2022/09/24 01:31:45;;;;;;;5.63;4.63;;;;;;;5.56;100.00;96096.38;6119528;23;20526;-78
2022/09/24 01:34:25;;;;;;;5.50;5.00;;;;;;;5.52;100.00;96081.53;6093676;23;20404;-76
2022/09/24 01:36:56;;;;;;;6.37;5.80;;;;;;;5.58;100.00;96091.59;6127740;23;20400;-77
2022/09/24 01:39:24;;;;;;;6.70;5.80;;;;;;;5.64;100.00;96103.53;6127956;23;20404;-77
2022/09/24 01:41:52;;;;;;;7.93;6.07;;;;;;;5.62;100.00;96103.06;6127547;23;20388;-77
2022/09/24 01:44:19;;;;;;;7.40;4.83;;;;;;;5.52;100.00;96086.78;6103083;23;20399;-77
2022/09/24 01:46:46;;;;;;;4.90;4.40;;;;;;;5.69;100.00;96094.75;6103263;23;20424;-77
2022/09/24 01:49:13;;;;;;;4.87;4.37;;;;;;;5.60;100.00;96065.84;6127357;23;20404;-77
2022/09/24 01:51:48;;;;;;;5.20;4.80;;;;;;;5.63;100.00;96085.47;6127754;23;20446;-77
2022/09/24 01:54:15;;;;;;;6.87;4.60;;;;;;;5.27;100.00;96073.19;6127540;23;20403;-76
2022/09/24 01:56:59;;;;;;;5.53;4.63;;;;;;;5.37;100.00;96074.03;6153671;23;20495;-77
2022/09/24 01:59:36;;;;;;;6.13;5.07;;;;;;;5.42;100.00;96071.28;6127886;23;20695;-77
2022/09/24 02:02:05;;;;;;;4.87;4.47;;;;;;;5.36;100.00;96052.31;6127500;23;20396;-76
2022/09/24 02:04:40;;;;;;;8.40;4.63;;;;;;;5.38;100.00;96044.91;6127848;23;20388;-77
2022/09/24 02:07:32;;;;;;;5.03;4.53;;;;;;;5.39;100.00;96045.69;6153557;23;20889;-77
2022/09/24 02:09:59;;;;;;;5.27;4.77;;;;;;;5.56;100.00;96066.75;6103042;23;20399;-77
2022/09/24 02:12:41;;;;;;;4.63;4.27;;;;;;;5.48;100.00;96067.50;6127402;23;20444;-77
2022/09/24 02:15:11;;;;;;;4.43;4.10;;;;;;;5.48;100.00;96054.38;6127830;23;20811;-77
2022/09/24 02:17:43;;;;;;;8.37;4.73;;;;;;;5.56;100.00;96066.75;6127308;23;20469;-77
2022/09/24 02:20:18;;;;;;;7.30;5.10;;;;;;;5.52;100.00;96057.94;6127837;23;20390;-77
2022/09/24 02:22:48;;;;;;;5.37;4.87;;;;;;;5.61;100.00;96061.41;6127444;23;20469;-77
2022/09/24 02:25:19;;;;;;;4.27;3.97;;;;;;;5.38;100.00;96057.25;6127660;23;20793;-77
2022/09/24 02:27:46;;;;;;;5.20;4.80;;;;;;;5.06;100.00;96019.72;6127081;23;20446;-77
2022/09/24 02:30:13;;;;;;;5.90;4.67;;;;;;;5.13;100.00;96040.25;6103094;23;20403;-77
2022/09/24 02:32:42;;;;;;;5.83;4.90;;;;;;;5.14;100.00;96047.06;6102712;23;20938;-77
2022/09/24 02:35:10;;;;;;;6.13;5.53;;;;;;;5.24;100.00;96042.34;6127293;23;20400;-77
2022/09/24 02:37:40;;;;;;;5.40;4.93;;;;;;;5.11;100.00;96022.22;6102884;23;20426;-77
2022/09/24 02:40:11;;;;;;;6.00;5.47;;;;;;;5.02;100.00;96045.72;6102669;23;20410;-77
2022/09/24 02:42:39;;;;;;;7.83;5.43;;;;;;;5.09;100.00;96028.84;6126913;23;20381;-77
2022/09/24 02:45:07;;;;;;;5.10;4.60;;;;;;;5.27;100.00;96033.88;6127075;23;20400;-77
2022/09/24 02:47:33;;;;;;;6.30;5.80;;;;;;;5.26;100.00;96029.72;6126976;23;20431;-77
2022/09/24 02:50:00;;;;;;;4.83;4.20;;;;;;;5.17;100.00;96012.38;6127493;23;20475;-77
2022/09/24 02:52:27;;;;;;;5.00;4.50;;;;;;;5.09;100.00;96005.25;6127139;23;20431;-77
2022/09/24 02:54:53;;;;;;;5.10;4.60;;;;;;;5.14;100.00;96016.38;6127310;23;20380;-77
2022/09/24 02:57:20;;;;;;;4.93;4.53;;;;;;;4.90;100.00;95974.75;6153300;23;20446;-77
2022/09/24 02:59:46;;;;;;;4.93;4.53;;;;;;;4.94;100.00;95973.13;6127361;23;20408;-77
2022/09/24 03:02:14;;;;;;;5.40;4.90;;;;;;;4.79;100.00;95970.06;6127318;23;20381;-77
2022/09/24 03:04:41;;;;;;;4.97;4.57;;;;;;;4.96;100.00;95986.69;6127131;23;20878;-77
2022/09/24 03:07:08;;;;;;;4.90;4.50;;;;;;;4.93;100.00;95982.03;6102558;23;20423;-77
2022/09/24 03:09:34;;;;;;;5.70;4.83;;;;;;;5.05;100.00;95999.81;6103285;23;20435;-77
2022/09/24 03:12:01;;;;;;;4.40;4.00;;;;;;;4.91;100.00;95968.44;6126692;23;20419;-77
2022/09/24 03:14:28;;;;;;;6.30;5.23;;;;;;;5.15;100.00;96007.44;6153181;23;20726;-77
2022/09/24 03:16:54;;;;;;;9.03;5.90;;;;;;;4.69;100.00;95945.69;6127151;23;20430;-77
2022/09/24 03:19:21;;;;;;;4.60;4.20;;;;;;;5.02;100.00;96008.28;6102782;23;20446;-77
2022/09/24 03:21:47;;;;;;;5.37;4.87;;;;;;;4.82;100.00;95975.50;6102827;23;20918;-77
2022/09/24 03:24:14;;;;;;;7.83;5.17;;;;;;;4.95;100.00;96006.09;6102810;23;20496;-77
2022/09/24 03:26:41;;;;;;;4.73;4.30;;;;;;;4.67;100.00;95965.34;6127367;23;20875;-77
2022/09/24 03:29:08;;;;;;;5.47;4.90;;;;;;;4.96;100.00;96012.88;6102936;23;20862;-77
2022/09/24 03:31:35;;;;;;;6.13;5.67;;;;;;;5.02;100.00;96010.91;6157896;23;20419;-77
2022/09/24 03:34:02;;;;;;;6.57;5.10;;;;;;;4.72;100.00;95958.16;6168801;23;20384;-77
2022/09/24 03:36:29;;;;;;;4.83;4.43;;;;;;;4.98;100.00;95983.75;6171540;23;20407;-77
2022/09/24 03:38:55;;;;;;;5.80;5.13;;;;;;;5.04;100.00;95999.06;6121630;23;20435;-76
2022/09/24 03:41:24;;;;;;;9.07;5.30;;;;;;;5.19;100.00;95997.91;6172256;23;20415;-77
2022/09/24 03:43:50;;;;;;;6.63;4.87;;;;;;;4.86;100.00;95963.34;6139266;23;20502;-77
2022/09/24 03:46:18;;;;;;;7.10;5.43;;;;;;;5.11;100.00;95998.66;6141407;23;20392;-77
2022/09/24 03:48:46;;;;;;;4.90;4.30;;;;;;;4.90;100.00;95987.09;6138696;23;20404;-77
2022/09/24 03:51:17;;;;;;;5.27;4.60;;;;;;;4.80;100.00;95976.84;6155208;23;20423;-77
2022/09/24 03:53:44;;;;;;;5.20;4.70;;;;;;;4.80;100.00;95961.13;6154831;23;20388;-77
2022/09/24 03:56:12;;;;;;;5.30;4.80;;;;;;;4.77;100.00;95961.72;6154569;23;20384;-77
2022/09/24 03:58:39;;;;;;;5.23;4.80;;;;;;;4.95;100.00;95992.22;6154670;23;20391;-77
2022/09/24 04:01:07;;;;;;;6.00;5.20;;;;;;;4.69;100.00;95974.47;6154686;23;20388;-77
2022/09/24 04:03:35;;;;;;;5.60;5.10;;;;;;;4.87;100.00;95983.22;6128706;23;20388;-77
2022/09/24 04:06:02;;;;;;;4.83;4.43;;;;;;;4.64;100.00;95950.25;6128343;23;20487;-77
2022/09/24 04:08:30;;;;;;;6.10;4.20;;;;;;;4.84;100.00;95977.81;6128663;23;20486;-77
2022/09/24 04:10:57;;;;;;;6.00;4.80;;;;;;;4.81;100.00;95979.19;6128588;23;20395;-77
2022/09/24 04:13:24;;;;;;;5.73;5.23;;;;;;;4.88;100.00;95997.09;6128290;23;20525;-77
2022/09/24 04:15:52;;;;;;;5.20;4.70;;;;;;;4.68;100.00;95959.84;6104060;23;20791;-76
2022/09/24 04:18:19;;;;;;;6.70;6.13;;;;;;;4.88;100.00;96000.47;6128520;23;20508;-77
2022/09/24 04:20:46;;;;;;;5.73;4.63;;;;;;;4.74;100.00;95971.72;6128325;23;20410;-77
2022/09/24 04:23:13;;;;;;;5.33;4.90;;;;;;;5.03;100.00;95997.50;6154352;23;20386;-76
2022/09/24 04:25:40;;;;;;;6.93;4.93;;;;;;;4.83;100.00;95965.78;6103939;23;20407;-77
2022/09/24 04:28:08;;;;;;;7.33;5.27;;;;;;;4.94;100.00;96006.38;6128254;23;20936;-77
2022/09/24 04:30:36;;;;;;;6.40;5.90;;;;;;;4.75;100.00;96002.09;6103953;23;20437;-77
2022/09/24 04:33:04;;;;;;;7.23;5.10;;;;;;;4.70;100.00;96004.06;6127989;23;20453;-77
2022/09/24 04:35:32;;;;;;;5.43;4.93;;;;;;;4.64;100.00;95998.13;6127966;23;20400;-77
2022/09/24 04:37:59;;;;;;;5.30;4.90;;;;;;;4.41;100.00;95947.63;6128236;23;20410;-77
2022/09/24 04:40:26;;;;;;;5.00;4.50;;;;;;;4.73;100.00;96016.53;6154369;23;20877;-77
2022/09/24 04:42:53;;;;;;;12.57;6.50;;;;;;;4.82;100.00;96008.78;6103844;23;20968;-77
2022/09/24 04:45:20;;;;;;;5.27;4.10;;;;;;;4.67;100.00;96015.91;6103932;23;20400;-77
2022/09/24 04:47:52;;;;;;;5.63;5.03;;;;;;;4.69;100.00;96020.84;6104241;23;20770;-77
2022/09/24 04:50:19;;;;;;;9.23;6.23;;;;;;;4.62;100.00;95995.03;6128325;23;20403;-76
2022/09/24 04:52:52;;;;;;;6.77;6.23;;;;;;;4.53;100.00;96004.66;6129407;23;20435;-77
2022/09/24 04:55:19;;;;;;;5.73;5.23;;;;;;;4.44;100.00;95991.50;6128538;23;20798;-76
2022/09/24 04:57:46;;;;;;;8.47;5.30;;;;;;;4.06;100.00;95949.16;6154220;23;20400;-77
2022/09/24 05:00:16;;;;;;;7.83;5.77;;;;;;;4.37;100.00;96017.31;6153953;23;20391;-77
2022/09/24 05:02:43;;;;;;;5.90;5.30;;;;;;;4.13;100.00;95962.59;6127787;23;20400;-77
2022/09/24 05:05:11;;;;;;;14.30;6.30;;;;;;;4.30;100.00;95996.00;6127659;23;20400;-77
2022/09/24 05:07:38;;;;;;;9.87;8.87;;;;;;;4.33;100.00;95997.25;6127996;23;20404;-77
2022/09/24 05:10:05;;;;;;;9.47;7.90;;;;;;;4.38;100.00;96003.16;6127971;23;20874;-77
2022/09/24 05:12:35;;;;;;;7.70;6.97;;;;;;;4.19;100.00;95963.28;6153882;23;20550;-77
2022/09/24 05:15:03;;;;;;;8.10;6.03;;;;;;;4.14;100.00;95952.91;6128216;23;20934;-77
2022/09/24 05:17:30;;;;;;;6.90;6.30;;;;;;;3.85;100.00;95901.69;6127841;23;20420;-77
2022/09/24 05:19:58;;;;;;;7.27;6.77;;;;;;;4.45;100.00;95987.81;6153681;23;20394;-77
2022/09/24 05:22:26;;;;;;;6.97;6.37;;;;;;;4.11;100.00;95938.56;6128089;23;20459;-77
2022/09/24 05:24:53;;;;;;;8.03;6.20;;;;;;;4.30;100.00;95963.84;6127845;23;20435;-77
2022/09/24 05:27:21;;;;;;;6.43;5.83;;;;;;;4.04;100.00;95929.59;6127544;23;20488;-77
2022/09/24 05:29:49;;;;;;;5.90;5.50;;;;;;;4.51;100.00;95985.88;6127463;23;20406;-77
2022/09/24 05:32:18;;;;;;;6.13;5.53;;;;;;;4.38;100.00;95963.13;6127653;23;20506;-77
2022/09/24 05:34:46;;;;;;;7.47;6.87;;;;;;;4.57;100.00;95994.41;6103257;23;20494;-77
2022/09/24 05:37:13;;;;;;;9.13;7.50;;;;;;;4.66;100.00;96006.47;6103129;23;20992;-77
2022/09/24 05:39:40;;;;;;;6.83;5.70;;;;;;;4.52;100.00;95955.22;6153722;23;20726;-77
2022/09/24 05:42:13;;;;;;;6.70;6.10;;;;;;;4.71;100.00;95995.13;6127222;23;20520;-77
2022/09/24 05:44:40;;;;;;;6.60;6.00;;;;;;;4.59;100.00;95972.09;6127346;23;20859;-77
2022/09/24 05:47:07;;;;;;;9.37;8.43;;;;;;;4.78;100.00;95981.59;6127592;23;20408;-77
2022/09/24 05:49:34;;;;;;;8.70;7.20;;;;;;;4.50;100.00;95984.31;6127385;23;20404;-77
2022/09/24 05:52:01;;;;;;;8.27;7.57;;;;;;;4.57;100.00;95995.16;6127530;23;20381;-77
2022/09/24 05:54:27;;;;;;;8.57;5.80;;;;;;;4.36;100.00;95931.25;6103140;23;20894;-76
2022/09/24 05:56:54;;;;;;;6.53;4.53;;;;;;;4.62;100.00;95978.56;6131428;23;20507;-77
2022/09/24 05:59:21;;;;;;;7.50;5.70;;;;;;;4.66;100.00;96000.47;6132188;23;20519;-77
2022/09/24 06:01:48;;;;;;;6.90;6.30;;;;;;;4.48;100.00;95947.19;6131962;23;20396;-77
2022/09/24 06:04:15;;;;;;;7.23;6.50;;;;;;;4.38;100.00;95940.34;6157891;23;20392;-77
2022/09/24 06:06:42;;;;;;;5.70;5.20;;;;;;;4.58;100.00;95960.06;6107456;23;20519;-77
2022/09/24 06:09:09;;;;;;;6.30;5.70;;;;;;;4.52;100.00;95945.53;6129110;23;20458;-77
2022/09/24 06:11:35;;;;;;;6.63;6.03;;;;;;;4.39;100.00;95941.09;6128166;23;20419;-77
2022/09/24 06:14:07;;;;;;;7.13;6.53;;;;;;;4.63;100.00;95962.56;6153891;23;20412;-77
2022/09/24 06:16:34;;;;;;;8.47;6.50;;;;;;;4.80;100.00;95948.81;6103627;23;20411;-77
2022/09/24 06:19:01;;;;;;;7.73;5.13;;;;;;;5.06;100.00;95969.94;6103701;23;20486;-77
2022/09/24 06:21:27;;;;;;;5.50;4.83;;;;;;;5.05;100.00;95957.91;6128238;23;20389;-77
2022/09/24 06:23:54;;;;;;;5.90;5.23;;;;;;;5.23;100.00;95975.28;6127615;23;20406;-77
2022/09/24 06:26:21;;;;;;;8.80;5.33;;;;;;;5.00;100.00;95950.94;6103330;23;20472;-77
2022/09/24 06:28:47;;;;;;;6.20;5.60;;;;;;;5.27;100.00;95983.31;6153737;23;20449;-77
2022/09/24 06:31:14;;;;;;;6.37;5.77;;;;;;;5.44;100.00;95996.50;6127552;23;20400;-77
2022/09/24 06:33:41;;;;;;;6.00;5.50;;;;;;;5.89;100.00;96004.28;6154077;23;20452;-77
2022/09/24 06:36:09;;;;;;;8.93;5.73;;;;;;;5.73;100.00;95996.03;6127749;23;20897;-77
2022/09/24 06:38:35;;;;;;;7.90;6.67;;;;;;;5.82;100.00;95961.97;6128342;23;20487;-77
2022/09/24 06:41:04;;;;;;;6.70;5.70;;;;;;;6.13;100.00;96007.28;6103618;23;20494;-77
2022/09/24 06:43:32;;;;;;;6.97;6.37;;;;;;;6.10;100.00;95980.88;6127815;23;20388;-77
2022/09/24 06:45:59;;;;;;;10.80;8.33;;;;;;;6.42;100.00;96013.88;6127875;23;20388;-77
2022/09/24 06:48:27;;;;;;;15.53;12.83;;;;;;;6.38;100.00;96000.56;6127905;23;20434;-77
2022/09/24 06:50:55;;;;;;;12.03;10.60;;;;;;;6.62;100.00;96009.84;6103178;23;20882;-77
2022/09/24 06:53:22;;;;;;;20.97;12.77;;;;;;;6.58;100.00;96008.94;6127545;23;20424;-77
2022/09/24 06:55:48;;;;;;;12.83;11.30;;;;;;;6.63;100.00;95985.91;6127408;23;20388;-77
2022/09/24 06:58:20;;;;;;;16.07;13.60;;;;;;;6.92;100.00;96014.19;6153561;23;20431;-77
2022/09/24 07:00:58;;;;;;;18.23;14.53;;;;;;;7.06;100.00;96006.13;6102944;23;20917;-77
2022/09/24 07:03:27;;;;;;;14.97;12.87;;;;;;;7.01;100.00;95985.28;6127339;23;20364;-77
2022/09/24 07:05:54;;;;;;;18.70;13.90;;;;;;;6.96;100.00;95986.22;6127011;23;20392;-77
2022/09/24 07:08:21;;;;;;;22.50;15.77;;;;;;;7.02;100.00;95987.59;6102593;23;20514;-77
2022/09/24 07:10:48;;;;;;;18.50;13.97;;;;;;;7.56;100.00;96006.34;6154562;23;20395;-78
2022/09/24 07:13:16;;;;;;;20.30;13.77;;;;;;;7.80;100.00;96016.34;6128733;23;20459;-77
2022/09/24 07:15:43;;;;;;;15.90;11.60;;;;;;;7.82;100.00;96000.22;6104827;23;20404;-77
2022/09/24 07:18:11;;;;;;;11.73;10.33;;;;;;;7.89;100.00;96011.06;6154769;23;20958;-77
2022/09/24 07:20:38;;;;;;;10.93;9.67;;;;;;;8.20;100.00;96016.78;6129088;23;20977;-77
2022/09/24 07:23:07;;;;;;;11.53;9.97;;;;;;;8.60;100.00;96013.78;6128792;23;20487;-77
2022/09/24 07:25:37;;;;;;;13.33;10.40;;;;;;;9.01;100.00;96020.13;6129232;23;20902;-78
2022/09/24 07:28:09;;;;;;;9.93;9.13;;;;;;;9.25;100.00;96006.28;6155122;23;20415;-77
2022/09/24 07:30:36;;;;;;;9.00;8.00;;;;;;;9.16;100.00;96017.66;6155240;23;20406;-77
2022/09/24 07:33:04;;;;;;;9.50;8.27;;;;;;;9.32;100.00;96017.84;6128607;23;20423;-78
2022/09/24 07:35:30;;;;;;;7.60;6.90;;;;;;;9.57;100.00;96021.31;6104577;23;20404;-77
2022/09/24 07:38:15;;;;;;;7.20;6.50;;;;;;;9.44;100.00;96022.38;6155306;23;20813;-78
2022/09/24 07:40:43;;;;;;;6.20;5.70;;;;;;;9.38;100.00;96023.69;6155418;23;20768;-77
2022/09/24 07:43:12;;;;;;;6.00;5.40;;;;;;;9.52;100.00;96032.09;6130331;23;20833;-78
2022/09/24 07:45:41;;;;;;;7.53;6.47;;;;;;;9.08;100.00;96013.25;6155806;23;20388;-77
2022/09/24 07:48:08;;;;;;;17.73;6.63;;;;;;;9.54;100.00;96023.84;6155859;23;20407;-77
2022/09/24 07:50:39;;;;;;;6.47;5.97;;;;;;;9.69;100.00;96004.72;6106428;23;20418;-77
2022/09/24 07:53:05;;;;;;;6.27;5.73;;;;;;;9.78;100.00;95971.84;6130007;23;20407;-77
2022/09/24 07:55:38;;;;;;;6.27;5.70;;;;;;;10.22;100.00;96019.66;6156286;23;20381;-77
2022/09/24 07:58:07;;;;;;;7.37;5.47;;;;;;;10.49;100.00;96028.00;6129910;23;20434;-78
2022/09/24 08:00:34;;;;;;;5.63;5.13;;;;;;;10.54;100.00;96027.75;6130045;23;20408;-77
2022/09/24 08:03:02;;;;;;;6.10;5.70;;;;;;;10.43;100.00;96030.09;6129900;23;20383;-78
2022/09/24 08:05:28;;;;;;;5.30;4.80;;;;;;;10.30;100.00;96025.94;6129189;23;20470;-77
2022/09/24 08:07:56;;;;;;;5.30;4.90;;;;;;;10.56;100.00;96028.22;6129638;23;20925;-77
2022/09/24 08:10:25;;;;;;;7.03;5.57;;;;;;;10.70;100.00;96023.34;6155600;23;20423;-78
2022/09/24 08:12:52;;;;;;;6.83;6.30;;;;;;;10.83;100.00;96021.44;6128649;23;21036;-78
2022/09/24 08:15:21;;;;;;;6.93;6.23;;;;;;;10.92;100.00;96030.78;6104461;23;20495;-78
2022/09/24 08:17:48;;;;;;;6.07;5.57;;;;;;;10.95;100.00;96019.53;6128803;23;21279;-77
2022/09/24 08:20:15;;;;;;;5.90;5.40;;;;;;;10.63;100.00;95994.06;6128393;23;20890;-78
2022/09/24 08:22:41;;;;;;;7.60;5.80;;;;;;;10.73;100.00;96022.69;6128966;23;20506;-78
2022/09/24 08:25:08;;;;;;;5.63;5.13;;;;;;;10.83;100.00;96027.50;6155051;23;20394;-78
2022/09/24 08:27:36;;;;;;;7.37;6.77;;;;;;;11.11;100.00;95989.72;6154700;23;20512;-78
2022/09/24 08:30:04;;;;;;;5.83;5.40;;;;;;;11.04;100.00;95989.50;6104251;23;20435;-77
2022/09/24 08:32:31;;;;;;;5.23;4.83;;;;;;;11.23;100.00;96035.44;6128513;23;20908;-78
2022/09/24 08:34:58;;;;;;;5.90;5.40;;;;;;;11.11;100.00;95990.50;6130824;23;20404;-78
2022/09/24 08:37:27;;;;;;;5.77;5.27;;;;;;;11.30;100.00;95997.00;6128788;23;20494;-75
2022/09/24 08:39:53;;;;;;;5.83;5.33;;;;;;;11.67;100.00;96024.06;6128731;23;20383;-76
2022/09/24 08:42:54;;;;;;;5.70;5.10;;;;;;;12.05;100.00;96031.47;6128617;23;20850;-76
2022/09/24 08:48:14;;;;;;;5.53;4.97;;;;;;;11.90;100.00;96024.28;6156553;23;20396;-76
2022/09/24 08:50:51;;;;;;;7.33;6.27;;;;;;;11.94;100.00;96033.84;6131666;23;20364;-76
2022/09/24 08:53:25;;;;;;;6.00;5.50;;;;;;;11.93;100.00;96031.56;6129489;23;20411;-76
2022/09/24 08:55:54;;;;;;;5.23;4.80;;;;;;;11.83;100.00;96024.88;6128376;23;20392;-76
2022/09/24 08:58:51;;;;;;;5.73;5.10;;;;;;;12.03;100.00;96031.06;6154873;23;20408;-76
2022/09/24 09:01:49;;;;;;;5.63;5.03;;;;;;;12.15;100.00;96036.22;6154352;23;20902;-76
2022/09/24 09:04:31;;;;;;;5.60;5.10;;;;;;;12.53;100.00;96038.25;6128180;23;20415;-76
2022/09/24 09:07:03;;;;;;;6.13;5.63;;;;;;;12.39;100.00;96038.69;6154253;23;20403;-76
2022/09/24 09:09:42;;;;;;;5.20;4.80;;;;;;;12.56;100.00;96034.91;6103914;23;20435;-76
2022/09/24 09:12:16;;;;;;;5.73;5.23;;;;;;;12.74;100.00;96037.94;6128142;23;20490;-76
2022/09/24 09:14:58;;;;;;;4.70;4.00;;;;;;;12.70;100.00;96035.22;6128092;23;20423;-76
2022/09/24 09:17:36;;;;;;;5.70;5.20;;;;;;;12.65;100.00;96032.06;6128402;23;20934;-77
2022/09/24 09:20:09;;;;;;;6.00;5.50;;;;;;;12.96;100.00;96031.97;6129545;23;20419;-76
2022/09/24 09:22:45;;;;;;;5.37;4.97;;;;;;;13.14;100.00;96039.53;6128083;23;20479;-76
2022/09/24 09:25:24;;;;;;;5.70;3.90;;;;;;;12.87;100.00;96014.72;6128439;23;20394;-77
2022/09/24 09:28:00;;;;;;;6.20;5.10;;;;;;;12.86;100.00;95991.97;6128273;23;20881;-77
2022/09/24 09:30:52;;;;;;;5.87;5.23;;;;;;;12.67;100.00;96006.72;6128274;23;20439;-77
2022/09/24 09:33:53;;;;;;;5.17;4.60;;;;;;;13.08;100.00;95996.56;6138794;23;20783;-76
2022/09/24 09:36:38;;;;;;;6.20;5.13;;;;;;;13.34;100.00;96030.44;6128318;23;20369;-76
2022/09/24 09:39:40;;;;;;;7.00;5.20;;;;;;;13.54;100.00;96034.63;6127817;23;20435;-77
2022/09/24 09:42:16;;;;;;;6.40;5.80;;;;;;;13.82;100.00;96041.56;6154213;23;20372;-76
2022/09/24 09:44:44;;;;;;;6.53;5.93;;;;;;;13.75;100.00;96001.56;6128162;23;20430;-78
2022/09/24 09:47:23;;;;;;;6.10;5.60;;;;;;;13.89;100.00;96020.44;6104610;23;20518;-77
2022/09/24 09:49:56;;;;;;;6.43;5.90;;;;;;;14.01;100.00;96022.13;6128700;23;20482;-77
2022/09/24 09:52:27;;;;;;;5.97;5.37;;;;;;;13.95;100.00;95991.66;6130237;23;20392;-77
2022/09/24 09:54:54;;;;;;;10.37;5.90;;;;;;;14.38;100.00;96028.41;6128134;23;20467;-77
2022/09/24 09:57:24;;;;;;;6.87;5.80;;;;;;;13.93;100.00;96023.91;6128896;23;20527;-77
2022/09/24 09:59:53;;;;;;;6.83;6.07;;;;;;;13.79;100.00;95991.78;6128144;23;20961;-77
2022/09/24 10:02:30;;;;;;;6.83;6.13;;;;;;;13.99;100.00;96017.16;6128582;23;20961;-77
2022/09/24 10:04:59;;;;;;;6.60;6.03;;;;;;;14.12;100.00;96021.19;6128554;23;20776;-77
2022/09/24 10:07:27;;;;;;;6.00;5.40;;;;;;;14.08;100.00;95998.31;6156302;23;20404;-76
2022/09/24 10:10:17;;;;;;;7.53;6.73;;;;;;;14.37;100.00;96024.22;6105828;23;20396;-76
2022/09/24 10:12:44;;;;;;;7.40;6.30;;;;;;;14.37;100.00;96028.78;6110091;23;20395;-76
2022/09/24 10:15:14;;;;;;;6.83;6.23;;;;;;;14.40;100.00;96033.38;6140845;23;20427;-76
2022/09/24 10:17:42;;;;;;;6.93;5.70;;;;;;;14.25;100.00;95995.16;6117644;23;20552;-76
2022/09/24 10:20:15;;;;;;;12.13;11.03;;;;;;;14.51;100.00;96038.88;6161583;23;20395;-77
2022/09/24 10:22:50;;;;;;;7.43;5.50;;;;;;;14.47;100.00;96014.91;6159347;23;20391;-77
2022/09/24 10:25:27;;;;;;;7.57;6.30;;;;;;;14.43;100.00;95985.56;6133608;23;20474;-77
2022/09/24 10:30:51;;;;;;;6.77;6.27;;;;;;;14.60;100.00;96010.91;6131366;23;20399;-76
2022/09/24 10:33:19;;;;;;;7.40;6.30;;;;;;;14.60;100.00;96002.91;6155138;23;20419;-76
2022/09/24 10:35:45;;;;;;;10.03;6.50;;;;;;;14.43;100.00;96004.19;6130619;23;20880;-77
2022/09/24 10:38:17;;;;;;;10.60;7.67;;;;;;;14.52;100.00;96027.88;6128613;23;20407;-77
2022/09/24 10:40:45;;;;;;;8.10;7.30;;;;;;;14.65;100.00;96033.75;6129474;23;20404;-76
2022/09/24 10:43:20;;;;;;;7.80;6.70;;;;;;;14.69;100.00;96035.38;6155536;23;20877;-77
2022/09/24 10:46:06;;;;;;;6.70;6.10;;;;;;;14.53;100.00;96033.97;6133600;23;20375;-77
2022/09/24 10:48:43;;;;;;;7.20;6.60;;;;;;;14.85;100.00;96031.75;6157415;23;20506;-77
2022/09/24 10:51:41;;;;;;;6.70;6.03;;;;;;;14.85;100.00;96023.78;6159149;23;20446;-77
2022/09/24 10:54:26;;;;;;;6.03;5.43;;;;;;;14.79;100.00;96029.41;6136845;23;20482;-78
2022/09/24 10:56:56;;;;;;;5.90;5.33;;;;;;;14.94;100.00;96027.69;6159962;23;20447;-78
2022/09/24 10:59:34;;;;;;;5.13;4.63;;;;;;;15.10;100.00;96026.75;6131621;23;20435;-77
2022/09/24 11:02:01;;;;;;;5.63;5.23;;;;;;;15.14;100.00;96016.91;6108212;23;20767;-77
2022/09/24 11:04:40;;;;;;;6.30;5.70;;;;;;;15.29;100.00;96016.69;6131460;23;20741;-77
2022/09/24 11:07:38;;;;;;;6.90;6.30;;;;;;;15.28;100.00;96012.50;6134223;23;20442;-77
2022/09/24 11:10:19;;;;;;;9.33;8.47;;;;;;;15.26;100.00;96006.78;6160092;23;20446;-77
2022/09/24 11:12:52;;;;;;;9.27;8.30;;;;;;;14.98;100.00;96017.88;6109300;23;20395;-77
2022/09/24 11:15:40;;;;;;;9.30;7.00;;;;;;;15.00;100.00;96014.84;6132840;23;20455;-77
2022/09/24 11:18:18;;;;;;;6.90;6.27;;;;;;;14.93;100.00;96006.75;6131730;23;20438;-77
2022/09/24 11:21:03;;;;;;;8.83;7.50;;;;;;;14.83;100.00;96007.41;6156652;23;20406;-77
2022/09/24 11:23:48;;;;;;;6.90;6.20;;;;;;;15.00;100.00;96012.19;6129988;23;20404;-78
2022/09/24 11:26:28;;;;;;;6.40;5.77;;;;;;;14.99;100.00;96007.97;6130778;23;20435;-77
2022/09/24 11:29:43;;;;;;;7.43;6.73;;;;;;;14.73;100.00;95998.91;6130526;23;20431;-77
2022/09/24 11:32:28;;;;;;;6.63;6.00;;;;;;;15.12;100.00;95998.63;6114669;23;20404;-77
2022/09/24 11:35:20;;;;;;;9.50;6.57;;;;;;;15.25;100.00;96009.81;6156764;23;20418;-77
2022/09/24 11:37:59;;;;;;;7.03;5.40;;;;;;;15.25;100.00;96009.81;6106194;23;20778;-77
2022/09/24 11:41:14;;;;;;;7.20;5.93;;;;;;;14.98;100.00;96003.78;6133784;23;20843;-78
2022/09/24 11:44:02;;;;;;;7.07;6.47;;;;;;;14.92;100.00;95998.00;6058238;23;20413;-77
2022/09/24 11:47:06;;;;;;;6.93;6.37;;;;;;;15.09;100.00;96004.69;6132744;23;20387;-78
2022/09/24 11:50:03;;;;;;;6.60;6.00;;;;;;;15.00;100.00;95965.03;6133319;23;20431;-78
2022/09/24 11:52:39;;;;;;;7.27;6.13;;;;;;;15.07;100.00;95996.28;6161577;23;20472;-79
2022/09/24 11:55:12;;;;;;;6.33;5.73;;;;;;;15.09;100.00;96004.69;6132684;23;20439;-78
2022/09/24 11:57:43;;;;;;;6.73;6.13;;;;;;;15.18;100.00;95991.06;6107170;23;20455;-77
2022/09/24 12:00:20;;;;;;;6.33;5.73;;;;;;;14.98;100.00;95955.88;6133039;23;20379;-78